Portada
METAR-TAF:

METAR-TAF

Aeroports :

Bauru, São Paulo, Brasil

latitud: 22-19S, longitud: 049-04W, altitud: 590 m

Observació

L'informe es va fer fa 1 hora i 0 minuts, a les 20:00 UTC
Vent 2 kt del Nord/Nord-Est
Temperatura 25°C
Humitat 50%
Pressió 1022 hPa
Visibilitat 10 km o més
sense núvols per sota de 1500 mi sense presència de cumulonimbus.

METAR: SBBU 192000Z 02002KT CAVOK 25/14 Q1022

Hora: 18:00 (21:00 UTC)

Pronòstic

L'informe es va fer fa 5 hores i 30 minuts, a les 15:30 UTC
Pronòstic vàlid del 19 a les 18 UTC al 20 a les 06 UTC
Vent 8 kt del Est
Visibilitat 10 km o més
sense núvols per sota de 1500 mi sense presència de cumulonimbus.

TAF: SBBU 191530Z 1918/2006 09008KT CAVOK TX26/1918Z TN14/2005Z RMK PEG

Observacions i pronòstics meteorològics de més de 4000 aeroports (METAR i TAF).

Les estacions disponibles són els punts grocs i vermells al mapa.

Posi el ratolí al punt desitjat per veure el nom de l'estació.

Feu clic per veure les observacions i els pronòstics meteorològics.

Per canviar el mapa: feu clic els botons verds amb una creu de color negre per apropar; al botó verd amb un guió per allunyar la imatge; o en les fletxes verdes per a mapes adjacents.


METAR-TAF: